sensor_id;sensor_type;location;lat;lon;timestamp;P1;durP1;ratioP1;P2;durP2;ratioP2
8683;SDS011;4379;59.744;18.206;2023-06-05T00:00:10;1.70;;;1.00;;
8683;SDS011;4379;59.744;18.206;2023-06-05T00:02:38;0.83;;;0.83;;
8683;SDS011;4379;59.744;18.206;2023-06-05T00:05:05;1.13;;;0.80;;
8683;SDS011;4379;59.744;18.206;2023-06-05T00:07:36;0.77;;;0.70;;
8683;SDS011;4379;59.744;18.206;2023-06-05T00:10:07;0.80;;;0.80;;
8683;SDS011;4379;59.744;18.206;2023-06-05T00:12:35;1.03;;;1.00;;
8683;SDS011;4379;59.744;18.206;2023-06-05T00:15:03;0.73;;;0.73;;
8683;SDS011;4379;59.744;18.206;2023-06-05T00:17:31;0.80;;;0.80;;
8683;SDS011;4379;59.744;18.206;2023-06-05T00:19:59;1.03;;;0.90;;
8683;SDS011;4379;59.744;18.206;2023-06-05T00:22:26;1.07;;;1.03;;
8683;SDS011;4379;59.744;18.206;2023-06-05T00:24:54;0.70;;;0.70;;
8683;SDS011;4379;59.744;18.206;2023-06-05T00:27:22;1.50;;;0.80;;
8683;SDS011;4379;59.744;18.206;2023-06-05T00:29:49;0.70;;;0.70;;
8683;SDS011;4379;59.744;18.206;2023-06-05T00:32:17;0.87;;;0.87;;
8683;SDS011;4379;59.744;18.206;2023-06-05T00:34:44;0.50;;;0.50;;
8683;SDS011;4379;59.744;18.206;2023-06-05T00:37:13;1.60;;;0.80;;
8683;SDS011;4379;59.744;18.206;2023-06-05T00:39:41;0.70;;;0.70;;
8683;SDS011;4379;59.744;18.206;2023-06-05T00:42:08;0.90;;;0.90;;
8683;SDS011;4379;59.744;18.206;2023-06-05T00:44:35;1.33;;;0.80;;
8683;SDS011;4379;59.744;18.206;2023-06-05T00:47:03;1.10;;;0.93;;
8683;SDS011;4379;59.744;18.206;2023-06-05T00:49:31;0.80;;;0.80;;
8683;SDS011;4379;59.744;18.206;2023-06-05T00:51:59;0.70;;;0.70;;
8683;SDS011;4379;59.744;18.206;2023-06-05T00:54:26;0.77;;;0.77;;
8683;SDS011;4379;59.744;18.206;2023-06-05T00:56:54;1.10;;;0.97;;
8683;SDS011;4379;59.744;18.206;2023-06-05T00:59:21;0.80;;;0.80;;
8683;SDS011;4379;59.744;18.206;2023-06-05T01:01:49;0.70;;;0.70;;
8683;SDS011;4379;59.744;18.206;2023-06-05T01:04:19;0.70;;;0.70;;
8683;SDS011;4379;59.744;18.206;2023-06-05T01:06:46;0.97;;;0.97;;
8683;SDS011;4379;59.744;18.206;2023-06-05T01:09:14;0.77;;;0.73;;
8683;SDS011;4379;59.744;18.206;2023-06-05T01:14:21;0.93;;;0.93;;
8683;SDS011;4379;59.744;18.206;2023-06-05T01:16:50;0.70;;;0.70;;
8683;SDS011;4379;59.744;18.206;2023-06-05T01:19:24;0.73;;;0.73;;
8683;SDS011;4379;59.744;18.206;2023-06-05T01:21:51;0.90;;;0.90;;
8683;SDS011;4379;59.744;18.206;2023-06-05T01:24:19;0.83;;;0.83;;
8683;SDS011;4379;59.744;18.206;2023-06-05T01:29:35;1.20;;;0.80;;
8683;SDS011;4379;59.744;18.206;2023-06-05T01:32:47;1.03;;;0.73;;
8683;SDS011;4379;59.744;18.206;2023-06-05T01:35:32;0.70;;;0.70;;
8683;SDS011;4379;59.744;18.206;2023-06-05T01:38:01;1.70;;;0.67;;
8683;SDS011;4379;59.744;18.206;2023-06-05T01:40:33;0.80;;;0.80;;
8683;SDS011;4379;59.744;18.206;2023-06-05T01:43:02;0.73;;;0.73;;
8683;SDS011;4379;59.744;18.206;2023-06-05T01:45:32;0.60;;;0.60;;
8683;SDS011;4379;59.744;18.206;2023-06-05T01:48:00;0.60;;;0.60;;
8683;SDS011;4379;59.744;18.206;2023-06-05T01:50:27;0.90;;;0.90;;
8683;SDS011;4379;59.744;18.206;2023-06-05T01:52:59;0.67;;;0.67;;
8683;SDS011;4379;59.744;18.206;2023-06-05T01:55:28;0.60;;;0.60;;
8683;SDS011;4379;59.744;18.206;2023-06-05T01:57:56;0.80;;;0.80;;
8683;SDS011;4379;59.744;18.206;2023-06-05T02:00:23;0.70;;;0.70;;
8683;SDS011;4379;59.744;18.206;2023-06-05T02:02:51;0.70;;;0.70;;
8683;SDS011;4379;59.744;18.206;2023-06-05T02:05:18;0.90;;;0.90;;
8683;SDS011;4379;59.744;18.206;2023-06-05T02:07:47;0.90;;;0.90;;
8683;SDS011;4379;59.744;18.206;2023-06-05T02:10:20;0.93;;;0.73;;
8683;SDS011;4379;59.744;18.206;2023-06-05T02:12:48;0.83;;;0.83;;
8683;SDS011;4379;59.744;18.206;2023-06-05T02:15:16;1.00;;;0.90;;
8683;SDS011;4379;59.744;18.206;2023-06-05T02:17:43;0.93;;;0.80;;
8683;SDS011;4379;59.744;18.206;2023-06-05T02:20:12;0.83;;;0.83;;
8683;SDS011;4379;59.744;18.206;2023-06-05T02:22:39;0.80;;;0.80;;
8683;SDS011;4379;59.744;18.206;2023-06-05T02:25:07;1.23;;;1.00;;
8683;SDS011;4379;59.744;18.206;2023-06-05T02:27:35;1.67;;;0.80;;
8683;SDS011;4379;59.744;18.206;2023-06-05T02:30:02;1.23;;;0.80;;
8683;SDS011;4379;59.744;18.206;2023-06-05T02:32:30;0.60;;;0.60;;
8683;SDS011;4379;59.744;18.206;2023-06-05T02:34:58;0.63;;;0.63;;
8683;SDS011;4379;59.744;18.206;2023-06-05T02:37:25;1.10;;;1.00;;
8683;SDS011;4379;59.744;18.206;2023-06-05T02:39:54;0.97;;;0.90;;
8683;SDS011;4379;59.744;18.206;2023-06-05T02:42:21;0.73;;;0.73;;
8683;SDS011;4379;59.744;18.206;2023-06-05T02:44:49;0.70;;;0.70;;
8683;SDS011;4379;59.744;18.206;2023-06-05T02:47:16;1.20;;;0.80;;
8683;SDS011;4379;59.744;18.206;2023-06-05T02:49:43;0.70;;;0.70;;
8683;SDS011;4379;59.744;18.206;2023-06-05T02:52:10;0.60;;;0.60;;
8683;SDS011;4379;59.744;18.206;2023-06-05T02:54:38;0.60;;;0.60;;
8683;SDS011;4379;59.744;18.206;2023-06-05T02:57:05;0.80;;;0.80;;
8683;SDS011;4379;59.744;18.206;2023-06-05T02:59:34;0.53;;;0.53;;
8683;SDS011;4379;59.744;18.206;2023-06-05T03:02:06;0.70;;;0.70;;
8683;SDS011;4379;59.744;18.206;2023-06-05T03:04:33;0.90;;;0.90;;
8683;SDS011;4379;59.744;18.206;2023-06-05T03:07:00;0.57;;;0.57;;
8683;SDS011;4379;59.744;18.206;2023-06-05T03:09:30;0.80;;;0.80;;
8683;SDS011;4379;59.744;18.206;2023-06-05T03:11:58;0.70;;;0.70;;
8683;SDS011;4379;59.744;18.206;2023-06-05T03:14:25;0.63;;;0.63;;
8683;SDS011;4379;59.744;18.206;2023-06-05T03:16:53;1.30;;;0.60;;
8683;SDS011;4379;59.744;18.206;2023-06-05T03:19:20;0.57;;;0.57;;
8683;SDS011;4379;59.744;18.206;2023-06-05T03:21:47;0.57;;;0.57;;
8683;SDS011;4379;59.744;18.206;2023-06-05T03:24:16;0.60;;;0.60;;
8683;SDS011;4379;59.744;18.206;2023-06-05T03:26:44;1.03;;;0.77;;
8683;SDS011;4379;59.744;18.206;2023-06-05T03:29:12;0.80;;;0.80;;
8683;SDS011;4379;59.744;18.206;2023-06-05T03:31:39;0.80;;;0.80;;
8683;SDS011;4379;59.744;18.206;2023-06-05T03:34:07;1.07;;;0.70;;
8683;SDS011;4379;59.744;18.206;2023-06-05T03:36:34;0.80;;;0.80;;
8683;SDS011;4379;59.744;18.206;2023-06-05T03:39:05;2.07;;;0.80;;
8683;SDS011;4379;59.744;18.206;2023-06-05T03:41:33;0.80;;;0.80;;
8683;SDS011;4379;59.744;18.206;2023-06-05T03:44:01;0.80;;;0.80;;
8683;SDS011;4379;59.744;18.206;2023-06-05T03:46:30;0.93;;;0.90;;
8683;SDS011;4379;59.744;18.206;2023-06-05T03:48:57;0.63;;;0.63;;
8683;SDS011;4379;59.744;18.206;2023-06-05T03:51:32;0.70;;;0.70;;
8683;SDS011;4379;59.744;18.206;2023-06-05T03:53:59;1.00;;;0.87;;
8683;SDS011;4379;59.744;18.206;2023-06-05T03:56:27;1.60;;;0.80;;
8683;SDS011;4379;59.744;18.206;2023-06-05T03:58:58;0.87;;;0.87;;
8683;SDS011;4379;59.744;18.206;2023-06-05T04:01:35;1.27;;;0.80;;
8683;SDS011;4379;59.744;18.206;2023-06-05T04:04:04;0.60;;;0.60;;
8683;SDS011;4379;59.744;18.206;2023-06-05T04:06:32;0.80;;;0.80;;
8683;SDS011;4379;59.744;18.206;2023-06-05T04:08:59;2.07;;;0.80;;
8683;SDS011;4379;59.744;18.206;2023-06-05T04:11:27;0.70;;;0.70;;
8683;SDS011;4379;59.744;18.206;2023-06-05T04:13:54;0.63;;;0.63;;
8683;SDS011;4379;59.744;18.206;2023-06-05T04:16:22;0.87;;;0.87;;
8683;SDS011;4379;59.744;18.206;2023-06-05T04:18:49;0.97;;;0.90;;
8683;SDS011;4379;59.744;18.206;2023-06-05T04:21:16;0.93;;;0.70;;
8683;SDS011;4379;59.744;18.206;2023-06-05T04:23:43;1.00;;;1.00;;
8683;SDS011;4379;59.744;18.206;2023-06-05T04:26:11;0.80;;;0.80;;
8683;SDS011;4379;59.744;18.206;2023-06-05T04:28:40;0.90;;;0.90;;
8683;SDS011;4379;59.744;18.206;2023-06-05T04:31:08;0.73;;;0.73;;
8683;SDS011;4379;59.744;18.206;2023-06-05T04:33:36;2.10;;;0.80;;
8683;SDS011;4379;59.744;18.206;2023-06-05T04:36:03;1.90;;;0.90;;
8683;SDS011;4379;59.744;18.206;2023-06-05T04:38:31;0.60;;;0.60;;
8683;SDS011;4379;59.744;18.206;2023-06-05T04:40:59;0.95;;;0.95;;
8683;SDS011;4379;59.744;18.206;2023-06-05T04:43:26;0.70;;;0.70;;
8683;SDS011;4379;59.744;18.206;2023-06-05T04:45:54;0.80;;;0.80;;
8683;SDS011;4379;59.744;18.206;2023-06-05T04:48:21;0.90;;;0.90;;
8683;SDS011;4379;59.744;18.206;2023-06-05T04:50:48;1.15;;;0.90;;
8683;SDS011;4379;59.744;18.206;2023-06-05T04:53:15;0.65;;;0.65;;
8683;SDS011;4379;59.744;18.206;2023-06-05T04:55:43;0.93;;;0.93;;
8683;SDS011;4379;59.744;18.206;2023-06-05T04:58:12;0.82;;;0.80;;
8683;SDS011;4379;59.744;18.206;2023-06-05T05:00:39;0.80;;;0.80;;
8683;SDS011;4379;59.744;18.206;2023-06-05T05:03:06;0.93;;;0.93;;
8683;SDS011;4379;59.744;18.206;2023-06-05T05:05:33;0.90;;;0.90;;
8683;SDS011;4379;59.744;18.206;2023-06-05T05:08:02;0.73;;;0.70;;
8683;SDS011;4379;59.744;18.206;2023-06-05T05:10:31;0.77;;;0.77;;
8683;SDS011;4379;59.744;18.206;2023-06-05T05:12:58;0.95;;;0.95;;
8683;SDS011;4379;59.744;18.206;2023-06-05T05:15:29;0.80;;;0.80;;
8683;SDS011;4379;59.744;18.206;2023-06-05T05:17:57;0.90;;;0.90;;
8683;SDS011;4379;59.744;18.206;2023-06-05T05:20:24;0.80;;;0.80;;
8683;SDS011;4379;59.744;18.206;2023-06-05T05:22:51;0.80;;;0.80;;
8683;SDS011;4379;59.744;18.206;2023-06-05T05:25:18;0.77;;;0.77;;
8683;SDS011;4379;59.744;18.206;2023-06-05T05:27:45;1.15;;;0.80;;
8683;SDS011;4379;59.744;18.206;2023-06-05T05:30:13;1.08;;;0.98;;
8683;SDS011;4379;59.744;18.206;2023-06-05T05:32:40;1.45;;;0.80;;
8683;SDS011;4379;59.744;18.206;2023-06-05T05:35:08;1.00;;;1.00;;
8683;SDS011;4379;59.744;18.206;2023-06-05T05:37:35;2.38;;;0.90;;
8683;SDS011;4379;59.744;18.206;2023-06-05T05:40:02;0.93;;;0.93;;
8683;SDS011;4379;59.744;18.206;2023-06-05T05:42:30;0.88;;;0.88;;
8683;SDS011;4379;59.744;18.206;2023-06-05T05:44:58;0.88;;;0.88;;
8683;SDS011;4379;59.744;18.206;2023-06-05T05:47:25;0.82;;;0.82;;
8683;SDS011;4379;59.744;18.206;2023-06-05T05:49:52;0.80;;;0.80;;
8683;SDS011;4379;59.744;18.206;2023-06-05T05:52:20;1.63;;;1.17;;
8683;SDS011;4379;59.744;18.206;2023-06-05T05:54:49;0.77;;;0.77;;
8683;SDS011;4379;59.744;18.206;2023-06-05T05:57:16;0.95;;;0.95;;
8683;SDS011;4379;59.744;18.206;2023-06-05T05:59:44;0.80;;;0.80;;
8683;SDS011;4379;59.744;18.206;2023-06-05T06:02:12;1.10;;;1.10;;
8683;SDS011;4379;59.744;18.206;2023-06-05T06:04:40;1.00;;;1.00;;
8683;SDS011;4379;59.744;18.206;2023-06-05T06:07:10;0.90;;;0.90;;
8683;SDS011;4379;59.744;18.206;2023-06-05T06:09:38;1.00;;;1.00;;
8683;SDS011;4379;59.744;18.206;2023-06-05T06:12:05;0.90;;;0.90;;
8683;SDS011;4379;59.744;18.206;2023-06-05T06:14:34;0.93;;;0.80;;
8683;SDS011;4379;59.744;18.206;2023-06-05T06:17:01;1.30;;;0.70;;
8683;SDS011;4379;59.744;18.206;2023-06-05T06:19:32;0.80;;;0.80;;
8683;SDS011;4379;59.744;18.206;2023-06-05T06:22:00;0.85;;;0.85;;
8683;SDS011;4379;59.744;18.206;2023-06-05T06:24:28;0.80;;;0.80;;
8683;SDS011;4379;59.744;18.206;2023-06-05T06:26:55;0.90;;;0.90;;
8683;SDS011;4379;59.744;18.206;2023-06-05T06:29:24;1.00;;;1.00;;
8683;SDS011;4379;59.744;18.206;2023-06-05T06:31:54;0.95;;;0.95;;
8683;SDS011;4379;59.744;18.206;2023-06-05T06:34:21;1.00;;;1.00;;
8683;SDS011;4379;59.744;18.206;2023-06-05T06:36:48;0.80;;;0.80;;
8683;SDS011;4379;59.744;18.206;2023-06-05T06:39:16;1.50;;;1.00;;
8683;SDS011;4379;59.744;18.206;2023-06-05T06:41:44;1.02;;;0.80;;
8683;SDS011;4379;59.744;18.206;2023-06-05T06:44:12;1.38;;;0.93;;
8683;SDS011;4379;59.744;18.206;2023-06-05T06:46:39;0.90;;;0.90;;
8683;SDS011;4379;59.744;18.206;2023-06-05T06:49:06;2.25;;;1.05;;
8683;SDS011;4379;59.744;18.206;2023-06-05T06:51:33;0.90;;;0.90;;
8683;SDS011;4379;59.744;18.206;2023-06-05T06:54:01;1.13;;;1.10;;
8683;SDS011;4379;59.744;18.206;2023-06-05T06:56:28;1.30;;;0.90;;
8683;SDS011;4379;59.744;18.206;2023-06-05T06:58:55;0.98;;;0.98;;
8683;SDS011;4379;59.744;18.206;2023-06-05T07:01:22;1.00;;;1.00;;
8683;SDS011;4379;59.744;18.206;2023-06-05T07:03:51;1.05;;;1.05;;
8683;SDS011;4379;59.744;18.206;2023-06-05T07:06:19;0.93;;;0.93;;
8683;SDS011;4379;59.744;18.206;2023-06-05T07:08:48;0.85;;;0.85;;
8683;SDS011;4379;59.744;18.206;2023-06-05T07:11:15;0.88;;;0.88;;
8683;SDS011;4379;59.744;18.206;2023-06-05T07:13:43;0.80;;;0.80;;
8683;SDS011;4379;59.744;18.206;2023-06-05T07:16:10;0.90;;;0.90;;
8683;SDS011;4379;59.744;18.206;2023-06-05T07:18:37;1.05;;;0.82;;
8683;SDS011;4379;59.744;18.206;2023-06-05T07:21:04;0.85;;;0.85;;
8683;SDS011;4379;59.744;18.206;2023-06-05T07:23:32;0.80;;;0.80;;
8683;SDS011;4379;59.744;18.206;2023-06-05T07:26:00;0.80;;;0.80;;
8683;SDS011;4379;59.744;18.206;2023-06-05T07:28:28;0.88;;;0.88;;
8683;SDS011;4379;59.744;18.206;2023-06-05T07:30:55;0.93;;;0.93;;
8683;SDS011;4379;59.744;18.206;2023-06-05T07:33:22;2.13;;;0.98;;
8683;SDS011;4379;59.744;18.206;2023-06-05T07:35:58;1.27;;;0.85;;
8683;SDS011;4379;59.744;18.206;2023-06-05T07:38:26;0.93;;;0.90;;
8683;SDS011;4379;59.744;18.206;2023-06-05T07:40:54;1.40;;;1.15;;
8683;SDS011;4379;59.744;18.206;2023-06-05T07:43:26;0.98;;;0.98;;
8683;SDS011;4379;59.744;18.206;2023-06-05T07:45:54;1.23;;;0.80;;
8683;SDS011;4379;59.744;18.206;2023-06-05T07:48:21;1.02;;;1.02;;
8683;SDS011;4379;59.744;18.206;2023-06-05T07:50:48;0.95;;;0.95;;
8683;SDS011;4379;59.744;18.206;2023-06-05T07:53:18;0.80;;;0.80;;
8683;SDS011;4379;59.744;18.206;2023-06-05T07:55:45;0.90;;;0.90;;
8683;SDS011;4379;59.744;18.206;2023-06-05T07:58:12;2.33;;;1.00;;
8683;SDS011;4379;59.744;18.206;2023-06-05T08:00:41;1.05;;;0.90;;
8683;SDS011;4379;59.744;18.206;2023-06-05T08:03:14;1.23;;;1.10;;
8683;SDS011;4379;59.744;18.206;2023-06-05T08:05:47;1.02;;;1.02;;
8683;SDS011;4379;59.744;18.206;2023-06-05T08:08:17;0.90;;;0.90;;
8683;SDS011;4379;59.744;18.206;2023-06-05T08:10:45;0.80;;;0.80;;
8683;SDS011;4379;59.744;18.206;2023-06-05T08:13:14;0.98;;;0.98;;
8683;SDS011;4379;59.744;18.206;2023-06-05T08:15:41;1.13;;;1.13;;
8683;SDS011;4379;59.744;18.206;2023-06-05T08:18:09;1.25;;;1.15;;
8683;SDS011;4379;59.744;18.206;2023-06-05T08:20:37;0.90;;;0.90;;
8683;SDS011;4379;59.744;18.206;2023-06-05T08:23:04;1.05;;;1.00;;
8683;SDS011;4379;59.744;18.206;2023-06-05T08:25:33;1.00;;;1.00;;
8683;SDS011;4379;59.744;18.206;2023-06-05T08:28:00;1.10;;;1.10;;
8683;SDS011;4379;59.744;18.206;2023-06-05T08:30:28;1.70;;;1.05;;
8683;SDS011;4379;59.744;18.206;2023-06-05T08:32:55;1.55;;;1.10;;
8683;SDS011;4379;59.744;18.206;2023-06-05T08:35:22;0.90;;;0.90;;
8683;SDS011;4379;59.744;18.206;2023-06-05T08:37:49;1.23;;;1.00;;
8683;SDS011;4379;59.744;18.206;2023-06-05T08:40:17;1.38;;;1.27;;
8683;SDS011;4379;59.744;18.206;2023-06-05T08:42:45;1.05;;;1.05;;
8683;SDS011;4379;59.744;18.206;2023-06-05T08:45:13;1.00;;;1.00;;
8683;SDS011;4379;59.744;18.206;2023-06-05T08:47:40;1.10;;;1.10;;
8683;SDS011;4379;59.744;18.206;2023-06-05T08:50:11;1.00;;;1.00;;
8683;SDS011;4379;59.744;18.206;2023-06-05T08:52:38;1.00;;;1.00;;
8683;SDS011;4379;59.744;18.206;2023-06-05T08:55:08;0.90;;;0.90;;
8683;SDS011;4379;59.744;18.206;2023-06-05T08:57:38;0.90;;;0.90;;
8683;SDS011;4379;59.744;18.206;2023-06-05T09:00:07;1.05;;;1.05;;
8683;SDS011;4379;59.744;18.206;2023-06-05T09:02:40;0.90;;;0.90;;
8683;SDS011;4379;59.744;18.206;2023-06-05T09:05:14;1.17;;;1.17;;
8683;SDS011;4379;59.744;18.206;2023-06-05T09:07:42;1.10;;;1.10;;
8683;SDS011;4379;59.744;18.206;2023-06-05T09:10:23;1.42;;;1.00;;
8683;SDS011;4379;59.744;18.206;2023-06-05T09:12:55;0.90;;;0.90;;
8683;SDS011;4379;59.744;18.206;2023-06-05T09:15:31;0.70;;;0.70;;
8683;SDS011;4379;59.744;18.206;2023-06-05T09:18:07;1.05;;;0.98;;
8683;SDS011;4379;59.744;18.206;2023-06-05T09:20:39;0.90;;;0.90;;
8683;SDS011;4379;59.744;18.206;2023-06-05T09:23:21;1.13;;;0.90;;
8683;SDS011;4379;59.744;18.206;2023-06-05T09:25:59;1.48;;;1.10;;
8683;SDS011;4379;59.744;18.206;2023-06-05T09:28:28;0.80;;;0.80;;
8683;SDS011;4379;59.744;18.206;2023-06-05T09:33:31;1.10;;;1.10;;
8683;SDS011;4379;59.744;18.206;2023-06-05T09:36:11;1.10;;;1.10;;
8683;SDS011;4379;59.744;18.206;2023-06-05T09:38:40;1.30;;;1.30;;
8683;SDS011;4379;59.744;18.206;2023-06-05T09:41:11;1.10;;;1.00;;
8683;SDS011;4379;59.744;18.206;2023-06-05T09:43:45;1.30;;;1.30;;
8683;SDS011;4379;59.744;18.206;2023-06-05T09:46:17;0.93;;;0.93;;
8683;SDS011;4379;59.744;18.206;2023-06-05T09:48:49;1.20;;;1.20;;
8683;SDS011;4379;59.744;18.206;2023-06-05T09:51:20;1.23;;;1.20;;
8683;SDS011;4379;59.744;18.206;2023-06-05T09:53:48;0.93;;;0.93;;
8683;SDS011;4379;59.744;18.206;2023-06-05T09:56:17;1.25;;;1.23;;
8683;SDS011;4379;59.744;18.206;2023-06-05T09:58:46;1.20;;;1.13;;
8683;SDS011;4379;59.744;18.206;2023-06-05T10:01:15;1.40;;;1.30;;
8683;SDS011;4379;59.744;18.206;2023-06-05T10:03:47;1.25;;;1.25;;
8683;SDS011;4379;59.744;18.206;2023-06-05T10:06:19;1.30;;;1.30;;
8683;SDS011;4379;59.744;18.206;2023-06-05T10:08:50;1.20;;;1.20;;
8683;SDS011;4379;59.744;18.206;2023-06-05T10:11:19;1.23;;;1.23;;
8683;SDS011;4379;59.744;18.206;2023-06-05T10:13:48;1.20;;;1.20;;
8683;SDS011;4379;59.744;18.206;2023-06-05T10:16:17;1.30;;;1.30;;
8683;SDS011;4379;59.744;18.206;2023-06-05T10:18:52;1.33;;;1.33;;
8683;SDS011;4379;59.744;18.206;2023-06-05T10:21:22;1.30;;;1.10;;
8683;SDS011;4379;59.744;18.206;2023-06-05T10:29:22;1.25;;;1.25;;
8683;SDS011;4379;59.744;18.206;2023-06-05T10:35:13;1.50;;;1.35;;
8683;SDS011;4379;59.744;18.206;2023-06-05T10:40:36;1.23;;;1.20;;
8683;SDS011;4379;59.744;18.206;2023-06-05T10:45:56;1.35;;;1.35;;
8683;SDS011;4379;59.744;18.206;2023-06-05T10:49:10;1.63;;;1.52;;
8683;SDS011;4379;59.744;18.206;2023-06-05T10:51:39;1.30;;;1.30;;
8683;SDS011;4379;59.744;18.206;2023-06-05T10:56:53;1.73;;;1.35;;
8683;SDS011;4379;59.744;18.206;2023-06-05T10:59:24;1.40;;;1.40;;
8683;SDS011;4379;59.744;18.206;2023-06-05T11:07:19;1.60;;;1.40;;
8683;SDS011;4379;59.744;18.206;2023-06-05T11:15:09;1.20;;;1.20;;
8683;SDS011;4379;59.744;18.206;2023-06-05T11:17:42;1.38;;;1.27;;
8683;SDS011;4379;59.744;18.206;2023-06-05T11:27:48;1.30;;;1.30;;
8683;SDS011;4379;59.744;18.206;2023-06-05T11:30:22;1.50;;;1.40;;
8683;SDS011;4379;59.744;18.206;2023-06-05T11:33:16;1.10;;;1.10;;
8683;SDS011;4379;59.744;18.206;2023-06-05T11:35:48;1.00;;;1.00;;
8683;SDS011;4379;59.744;18.206;2023-06-05T11:38:18;1.50;;;1.38;;
8683;SDS011;4379;59.744;18.206;2023-06-05T11:40:51;1.30;;;1.30;;
8683;SDS011;4379;59.744;18.206;2023-06-05T11:43:18;1.42;;;1.17;;
8683;SDS011;4379;59.744;18.206;2023-06-05T11:48:19;1.48;;;1.10;;
8683;SDS011;4379;59.744;18.206;2023-06-05T11:53:27;1.60;;;1.35;;
8683;SDS011;4379;59.744;18.206;2023-06-05T11:55:55;1.35;;;1.25;;
8683;SDS011;4379;59.744;18.206;2023-06-05T11:58:30;1.35;;;1.35;;
8683;SDS011;4379;59.744;18.206;2023-06-05T12:01:09;1.20;;;1.20;;
8683;SDS011;4379;59.744;18.206;2023-06-05T12:03:42;1.13;;;1.13;;
8683;SDS011;4379;59.744;18.206;2023-06-05T12:06:10;1.23;;;1.23;;
8683;SDS011;4379;59.744;18.206;2023-06-05T12:08:41;1.42;;;1.42;;
8683;SDS011;4379;59.744;18.206;2023-06-05T12:11:25;1.40;;;1.40;;
8683;SDS011;4379;59.744;18.206;2023-06-05T12:13:54;1.40;;;1.33;;
8683;SDS011;4379;59.744;18.206;2023-06-05T12:16:32;1.60;;;1.50;;
8683;SDS011;4379;59.744;18.206;2023-06-05T12:19:02;1.30;;;1.30;;
8683;SDS011;4379;59.744;18.206;2023-06-05T12:21:40;1.30;;;1.30;;
8683;SDS011;4379;59.744;18.206;2023-06-05T12:24:08;1.20;;;1.20;;
8683;SDS011;4379;59.744;18.206;2023-06-05T12:26:55;1.55;;;1.45;;
8683;SDS011;4379;59.744;18.206;2023-06-05T12:29:33;1.25;;;1.25;;
8683;SDS011;4379;59.744;18.206;2023-06-05T12:32:02;1.60;;;1.50;;
8683;SDS011;4379;59.744;18.206;2023-06-05T12:34:46;1.50;;;1.50;;
8683;SDS011;4379;59.744;18.206;2023-06-05T12:37:26;2.78;;;1.30;;
8683;SDS011;4379;59.744;18.206;2023-06-05T12:39:56;1.63;;;1.50;;
8683;SDS011;4379;59.744;18.206;2023-06-05T12:42:28;1.23;;;1.23;;
8683;SDS011;4379;59.744;18.206;2023-06-05T12:45:02;1.23;;;1.23;;
8683;SDS011;4379;59.744;18.206;2023-06-05T12:47:30;1.92;;;1.27;;
8683;SDS011;4379;59.744;18.206;2023-06-05T12:49:57;1.27;;;1.27;;
8683;SDS011;4379;59.744;18.206;2023-06-05T12:52:25;1.52;;;1.40;;
8683;SDS011;4379;59.744;18.206;2023-06-05T12:54:55;1.42;;;1.33;;
8683;SDS011;4379;59.744;18.206;2023-06-05T12:57:23;1.73;;;1.15;;
8683;SDS011;4379;59.744;18.206;2023-06-05T12:59:54;1.30;;;1.30;;
8683;SDS011;4379;59.744;18.206;2023-06-05T13:02:22;1.52;;;1.38;;
8683;SDS011;4379;59.744;18.206;2023-06-05T13:04:51;1.50;;;1.40;;
8683;SDS011;4379;59.744;18.206;2023-06-05T13:07:18;1.20;;;1.20;;
8683;SDS011;4379;59.744;18.206;2023-06-05T13:09:48;1.70;;;1.50;;
8683;SDS011;4379;59.744;18.206;2023-06-05T13:12:16;1.17;;;1.17;;
8683;SDS011;4379;59.744;18.206;2023-06-05T13:14:43;1.73;;;1.63;;
8683;SDS011;4379;59.744;18.206;2023-06-05T13:17:10;1.60;;;1.50;;
8683;SDS011;4379;59.744;18.206;2023-06-05T13:19:38;1.40;;;1.30;;
8683;SDS011;4379;59.744;18.206;2023-06-05T13:22:05;1.30;;;1.30;;
8683;SDS011;4379;59.744;18.206;2023-06-05T13:24:34;1.63;;;1.60;;
8683;SDS011;4379;59.744;18.206;2023-06-05T13:27:01;1.45;;;1.35;;
8683;SDS011;4379;59.744;18.206;2023-06-05T13:29:29;1.60;;;1.50;;
8683;SDS011;4379;59.744;18.206;2023-06-05T13:31:57;1.42;;;1.42;;
8683;SDS011;4379;59.744;18.206;2023-06-05T13:34:24;1.42;;;1.42;;
8683;SDS011;4379;59.744;18.206;2023-06-05T13:36:52;1.23;;;1.23;;
8683;SDS011;4379;59.744;18.206;2023-06-05T13:39:28;1.27;;;1.17;;
8683;SDS011;4379;59.744;18.206;2023-06-05T13:41:56;1.50;;;1.40;;
8683;SDS011;4379;59.744;18.206;2023-06-05T13:44:23;1.38;;;1.38;;
8683;SDS011;4379;59.744;18.206;2023-06-05T13:46:50;1.17;;;1.17;;
8683;SDS011;4379;59.744;18.206;2023-06-05T13:49:17;1.58;;;1.35;;
8683;SDS011;4379;59.744;18.206;2023-06-05T13:51:45;1.45;;;1.45;;
8683;SDS011;4379;59.744;18.206;2023-06-05T13:54:12;1.60;;;1.50;;
8683;SDS011;4379;59.744;18.206;2023-06-05T13:56:39;1.27;;;1.27;;
8683;SDS011;4379;59.744;18.206;2023-06-05T13:59:07;1.80;;;1.70;;
8683;SDS011;4379;59.744;18.206;2023-06-05T14:01:34;1.38;;;1.38;;
8683;SDS011;4379;59.744;18.206;2023-06-05T14:04:01;1.23;;;1.23;;
8683;SDS011;4379;59.744;18.206;2023-06-05T14:06:29;1.45;;;1.35;;
8683;SDS011;4379;59.744;18.206;2023-06-05T14:08:57;1.58;;;1.35;;
8683;SDS011;4379;59.744;18.206;2023-06-05T14:11:25;1.45;;;1.45;;
8683;SDS011;4379;59.744;18.206;2023-06-05T14:13:52;1.48;;;1.40;;
8683;SDS011;4379;59.744;18.206;2023-06-05T14:16:20;1.50;;;1.40;;
8683;SDS011;4379;59.744;18.206;2023-06-05T14:18:48;1.50;;;1.40;;
8683;SDS011;4379;59.744;18.206;2023-06-05T14:21:16;1.52;;;1.50;;
8683;SDS011;4379;59.744;18.206;2023-06-05T14:23:43;2.35;;;1.60;;
8683;SDS011;4379;59.744;18.206;2023-06-05T14:26:10;1.95;;;1.35;;
8683;SDS011;4379;59.744;18.206;2023-06-05T14:28:38;1.55;;;1.40;;
8683;SDS011;4379;59.744;18.206;2023-06-05T14:31:05;1.85;;;1.38;;
8683;SDS011;4379;59.744;18.206;2023-06-05T14:33:32;1.88;;;1.67;;
8683;SDS011;4379;59.744;18.206;2023-06-05T14:36:00;1.60;;;1.50;;
8683;SDS011;4379;59.744;18.206;2023-06-05T14:38:27;1.50;;;1.50;;
8683;SDS011;4379;59.744;18.206;2023-06-05T14:40:54;1.60;;;1.50;;
8683;SDS011;4379;59.744;18.206;2023-06-05T14:43:24;1.52;;;1.42;;
8683;SDS011;4379;59.744;18.206;2023-06-05T14:45:52;1.70;;;1.55;;
8683;SDS011;4379;59.744;18.206;2023-06-05T14:48:20;1.58;;;1.48;;
8683;SDS011;4379;59.744;18.206;2023-06-05T14:50:48;1.70;;;1.60;;
8683;SDS011;4379;59.744;18.206;2023-06-05T14:53:16;1.30;;;1.30;;
8683;SDS011;4379;59.744;18.206;2023-06-05T14:55:43;1.23;;;1.23;;
8683;SDS011;4379;59.744;18.206;2023-06-05T14:58:10;1.40;;;1.40;;
8683;SDS011;4379;59.744;18.206;2023-06-05T15:00:38;1.40;;;1.40;;
8683;SDS011;4379;59.744;18.206;2023-06-05T15:03:05;2.08;;;1.85;;
8683;SDS011;4379;59.744;18.206;2023-06-05T15:05:33;1.42;;;1.30;;
8683;SDS011;4379;59.744;18.206;2023-06-05T15:08:00;1.40;;;1.30;;
8683;SDS011;4379;59.744;18.206;2023-06-05T15:10:27;1.55;;;1.55;;
8683;SDS011;4379;59.744;18.206;2023-06-05T15:12:55;1.55;;;1.45;;
8683;SDS011;4379;59.744;18.206;2023-06-05T15:15:25;1.55;;;1.48;;
8683;SDS011;4379;59.744;18.206;2023-06-05T15:17:52;1.30;;;1.30;;
8683;SDS011;4379;59.744;18.206;2023-06-05T15:20:23;1.40;;;1.30;;
8683;SDS011;4379;59.744;18.206;2023-06-05T15:22:52;3.83;;;1.35;;
8683;SDS011;4379;59.744;18.206;2023-06-05T15:25:23;2.25;;;2.05;;
8683;SDS011;4379;59.744;18.206;2023-06-05T15:27:51;1.75;;;1.50;;
8683;SDS011;4379;59.744;18.206;2023-06-05T15:30:19;1.50;;;1.50;;
8683;SDS011;4379;59.744;18.206;2023-06-05T15:32:46;1.73;;;1.63;;
8683;SDS011;4379;59.744;18.206;2023-06-05T15:35:13;1.60;;;1.48;;
8683;SDS011;4379;59.744;18.206;2023-06-05T15:37:41;2.45;;;1.25;;
8683;SDS011;4379;59.744;18.206;2023-06-05T15:40:08;1.50;;;1.50;;
8683;SDS011;4379;59.744;18.206;2023-06-05T15:42:36;1.55;;;1.50;;
8683;SDS011;4379;59.744;18.206;2023-06-05T15:45:10;3.22;;;1.65;;
8683;SDS011;4379;59.744;18.206;2023-06-05T15:47:42;1.80;;;1.70;;
8683;SDS011;4379;59.744;18.206;2023-06-05T15:50:09;1.63;;;1.55;;
8683;SDS011;4379;59.744;18.206;2023-06-05T15:52:37;1.63;;;1.52;;
8683;SDS011;4379;59.744;18.206;2023-06-05T15:55:06;2.35;;;1.55;;
8683;SDS011;4379;59.744;18.206;2023-06-05T15:57:35;1.73;;;1.58;;
8683;SDS011;4379;59.744;18.206;2023-06-05T16:00:02;1.40;;;1.40;;